Riachinho, Brazil
Current Conditions -  °F | °C
As of 10:00 AM on Saturday 25 Oct 2014 (Local Time) from SBIZ Reporting Station
Overcast Overcast  
Wind Chill: 84°   Ceiling: 2000
Heat Index: 91°   Visibility: 6mi
Dew Point: 73°   Wind: 8mph
Humidity: 70%   Direction: 70°ENE
Pressure: 29.88"   Gusts: NA
Location:  6.44°S, 48.14°W
Report Text: SBIZ 251300Z 07007KT 9999 OVC020 29/23 Q1012
Loading
Personal Weather Stations






























Interactive Weather Map New forecast layout! Learn more

10-Day Weather Forecast

Advertisements
Track Severe Weather on mobile